Авиационная погода в Ургенче

Регион: 
Погода METAR: 
UTNU 271200Z 23008KT 9999 OVC023 04/M00 Q1023 R31/CLRD70 NOSIG
Время наблюдения
2021-02-27T12:00:00Z
Температура C
4.0
Точка росы
0.0
Направление ветра
230
Скорость ветра (узлы)
8
Метео видимость
6.21
Явления погоды
Условия полета
MVFR